This demonstration page uses our WeatherBlox Daily Observations layout. Learn more.

38.80484, -77.04692

Hourly Observations for November 23, 2019

Temp ( °F °C ) Dew Point ( °F °C ) Humidity (%) Winds ( mph kmh ) Pressure ( in mb ) Visibility ( mi km ) Precip ( " mm )
12:52 am 00:52 Clear 39 3.9 28 -2.2 65 65 NNW 5 7 30.09 1019 10 16.0934 0 0
1:52 am 01:52 Clear 38 3.3 27 -2.8 65 65 NNW 5 7 30.09 1019 10 16.0934 0 0
2:52 am 02:52 Mostly Cloudy 37 2.8 27 -2.8 67 67 NNW 8 13 30.09 1019 10 16.0934 0 0
3:52 am 03:52 Mostly Cloudy 38 3.3 27 -2.8 65 65 N 6 9 30.09 1019 10 16.0934 0 0
4:52 am 04:52 Mostly Cloudy 37 2.8 29 -1.7 73 73 ENE 6 9 30.08 1019 10 16.0934 0 0
5:52 am 05:52 Mostly Cloudy 36 2.2 29 -1.7 76 76 Calm 30.09 1019 10 16.0934 0 0
6:52 am 06:52 Mostly Cloudy 37 2.8 28 -2.2 70 70 Calm 30.1 1019 10 16.0934 0 0
7:52 am 07:52 Mostly Cloudy 37 2.8 31 -0.6 79 79 ENE 8 13 30.09 1019 10 16.0934 0 0
8:52 am 08:52 Mostly Cloudy 38 3.3 28 -2.2 68 68 ENE 3 6 30.1 1019 10 16.0934 0 0
9:52 am 09:52 Mostly Cloudy 41 5 27 -2.8 57 57 Calm 30.1 1019 10 16.0934 0 0
10:52 am 10:52 Mostly Cloudy 41 5 28 -2.2 60 60 SSW 3 6 30.08 1019 10 16.0934 0 0
11:52 am 11:52 Mostly Cloudy 42 5.6 28 -2.2 58 58 S 6 9 30.04 1017 10 16.0934 0 0
12:52 pm 12:52 Mostly Cloudy 43 6.1 30 -1.1 60 60 SSW 7 11 30 1016 10 16.0934 0 0
1:52 pm 13:52 Mostly Cloudy 44 6.7 30 -1.1 58 58 S 5 7 29.96 1015 10 16.0934 0 0
2:52 pm 14:52 Cloudy 44 6.7 31 -0.6 60 60 S 7 11 29.94 1014 10 16.0934 0 0
4:52 pm 16:52 Cloudy with Light Rain 43 6.1 36 2.2 76 76 S 8 13 29.88 1012 10 16.0934 0.001 0.001
5:52 pm 17:52 Cloudy with Light Rain 42 5.6 37 2.8 82 82 SE 8 13 29.85 1011 10 16.0934 0.01 0.254
6:19 pm 18:19 Cloudy with Light Rain 42 5.6 37 2.8 82 82 SE 8 13 29.84 1011 10 16.0934 0.01 0.254
6:52 pm 18:52 Cloudy with Light Rain 41 5 36 2.2 82 82 ESE 9 15 29.81 1009 10 16.0934 0.02 0.508
7:52 pm 19:52 Cloudy with Light Rain 41 5 37 2.8 86 86 Calm 29.8 1009 10 16.0934 0.01 0.254
8:52 pm 20:52 Cloudy 41 5 39 3.9 93 93 E 8 13 29.74 1007 10 16.0934 0.001 0.001
9:52 pm 21:52 Cloudy with Rain 41 5 39 3.9 93 93 NNE 6 9 29.71 1006 5 8.0467 0.03 0.762
10:52 pm 22:52 Cloudy with Rain 41 5 39 3.9 93 93 N 6 9 29.65 1004 6 9.65604 0.06 1.524
11:36 pm 23:36 Cloudy with Heavy Rain 41 5 39 3.9 93 93 NNE 7 11 29.63 1003 4 6.43736 0.17 4.318

Powered by AerisWeather